createdAt,value
2019-05-09T00:02:04.713Z,10.49
2019-05-09T00:05:09.491Z,10.68
2019-05-09T00:08:13.977Z,10.66
2019-05-09T00:11:17.882Z,10.55
2019-05-09T00:14:23.851Z,10.51
2019-05-09T00:17:27.008Z,10.49
2019-05-09T00:20:37.924Z,10.55
2019-05-09T00:23:43.670Z,10.45
2019-05-09T00:26:47.449Z,10.55
2019-05-09T00:29:53.191Z,10.46
2019-05-09T00:32:57.026Z,10.45
2019-05-09T00:36:00.725Z,10.44
2019-05-09T00:39:05.462Z,10.55
2019-05-09T00:42:09.171Z,10.49
2019-05-09T00:45:23.869Z,10.50
2019-05-09T00:48:33.814Z,10.48
2019-05-09T00:51:37.620Z,10.54
2019-05-09T00:54:43.672Z,10.44
2019-05-09T00:57:46.749Z,10.49
2019-05-09T01:00:50.440Z,10.46
2019-05-09T01:03:54.215Z,10.48
2019-05-09T01:06:57.918Z,10.47
2019-05-09T01:10:04.065Z,10.49
2019-05-09T01:13:07.042Z,10.47
2019-05-09T01:16:10.740Z,10.51
2019-05-09T01:19:14.749Z,10.46
2019-05-09T01:22:18.516Z,10.46
2019-05-09T01:25:23.994Z,10.43
2019-05-09T01:28:27.884Z,10.47
2019-05-09T01:31:33.301Z,10.37
2019-05-09T01:34:37.542Z,10.39
2019-05-09T01:37:43.307Z,10.36
2019-05-09T01:40:47.033Z,10.41
2019-05-09T01:43:50.732Z,10.34
2019-05-09T01:46:54.940Z,10.28
2019-05-09T01:49:58.640Z,10.24
2019-05-09T01:53:04.126Z,10.11
2019-05-09T01:56:07.871Z,10.19
2019-05-09T01:59:13.530Z,10.15
2019-05-09T02:02:17.277Z,10.07
2019-05-09T02:05:21.047Z,10.00
2019-05-09T02:08:24.825Z,9.96
2019-05-09T02:11:41.675Z,9.92
2019-05-09T02:14:40.642Z,9.89
2019-05-09T02:18:01.135Z,10.04
2019-05-09T02:20:57.230Z,9.98
2019-05-09T02:24:03.053Z,9.93
2019-05-09T02:27:06.330Z,9.99
2019-05-09T02:30:14.703Z,9.99
2019-05-09T02:33:35.538Z,9.91
2019-05-09T02:36:39.227Z,9.82
2019-05-09T02:39:42.908Z,9.79
2019-05-09T02:42:49.002Z,9.60
2019-05-09T02:46:14.808Z,9.49
2019-05-09T02:49:19.271Z,9.51
2019-05-09T02:52:23.224Z,9.46
2019-05-09T02:55:28.862Z,9.45
2019-05-09T02:58:38.842Z,9.45
2019-05-09T03:01:59.405Z,9.39
2019-05-09T03:05:03.094Z,9.31
2019-05-09T03:08:09.063Z,9.29
2019-05-09T03:11:12.297Z,9.31
2019-05-09T03:14:19.343Z,9.26
2019-05-09T03:17:21.662Z,9.24
2019-05-09T03:20:49.367Z,9.27
2019-05-09T03:23:53.218Z,9.28
2019-05-09T03:27:01.458Z,9.20
2019-05-09T03:30:11.471Z,9.37
2019-05-09T03:33:12.585Z,9.47
2019-05-09T03:36:18.161Z,9.25
2019-05-09T03:39:21.771Z,9.19
2019-05-09T03:42:38.136Z,9.21
2019-05-09T03:45:31.768Z,9.33
2019-05-09T03:48:40.740Z,9.29
2019-05-09T03:51:44.440Z,9.30
2019-05-09T03:54:48.128Z,9.35
2019-05-09T03:58:01.014Z,9.21
2019-05-09T04:01:04.767Z,9.43
2019-05-09T04:04:08.893Z,9.34
2019-05-09T04:07:12.644Z,9.34
2019-05-09T04:10:18.055Z,9.45
2019-05-09T04:13:25.479Z,9.46
2019-05-09T04:16:29.167Z,9.52
2019-05-09T04:19:32.861Z,9.38
2019-05-09T04:22:38.514Z,9.42
2019-05-09T04:25:48.259Z,9.32
2019-05-09T04:28:51.957Z,9.40
2019-05-09T04:31:57.532Z,9.32
2019-05-09T04:35:01.415Z,9.43
2019-05-09T04:38:07.345Z,9.54
2019-05-09T04:41:10.545Z,9.54
2019-05-09T04:44:21.763Z,9.60
2019-05-09T04:47:25.251Z,9.71
2019-05-09T04:50:28.954Z,9.85
2019-05-09T04:53:32.823Z,9.99
2019-05-09T04:56:39.189Z,10.10
2019-05-09T04:59:42.901Z,10.03
2019-05-09T05:02:49.596Z,10.11
2019-05-09T05:05:53.306Z,10.15
2019-05-09T05:08:58.593Z,10.24
2019-05-09T05:12:02.383Z,10.29
2019-05-09T05:15:08.015Z,10.35
2019-05-09T05:18:11.790Z,10.18
2019-05-09T05:21:15.492Z,10.12
2019-05-09T05:24:27.788Z,10.25
2019-05-09T05:27:31.840Z,10.35
2019-05-09T05:30:37.351Z,10.12
2019-05-09T05:34:08.233Z,10.34
2019-05-09T05:37:11.566Z,10.39
2019-05-09T05:40:17.678Z,10.45
2019-05-09T05:43:21.239Z,10.35
2019-05-09T05:46:31.405Z,10.48
2019-05-09T05:49:35.182Z,10.53
2019-05-09T05:52:38.877Z,10.53
2019-05-09T05:55:42.620Z,10.48
2019-05-09T05:58:48.794Z,10.49
2019-05-09T06:01:51.763Z,10.66
2019-05-09T06:04:57.760Z,10.64
2019-05-09T06:08:01.109Z,10.71
2019-05-09T06:11:08.550Z,10.74
2019-05-09T06:14:11.899Z,10.73
2019-05-09T06:17:17.943Z,10.74
2019-05-09T06:20:21.449Z,10.78
2019-05-09T06:23:25.149Z,10.80
2019-05-09T06:26:29.396Z,10.81
2019-05-09T06:29:33.437Z,10.83
2019-05-09T06:32:38.445Z,11.03
2019-05-09T06:35:42.646Z,11.06
2019-05-09T06:38:48.592Z,11.07
2019-05-09T06:41:51.758Z,11.06
2019-05-09T06:45:13.425Z,11.05
2019-05-09T06:48:18.107Z,10.93
2019-05-09T06:51:22.175Z,11.14
2019-05-09T06:54:27.871Z,11.18
2019-05-09T06:57:31.375Z,11.38
2019-05-09T07:00:50.371Z,11.69
2019-05-09T07:03:58.000Z,11.59
2019-05-09T07:07:11.750Z,11.95
2019-05-09T07:10:17.693Z,12.40
2019-05-09T07:13:20.961Z,12.18
2019-05-09T07:16:24.650Z,12.28
2019-05-09T07:19:28.349Z,12.24
2019-05-09T07:22:42.194Z,12.22
2019-05-09T07:26:07.869Z,12.19
2019-05-09T07:29:11.573Z,12.35
2019-05-09T07:32:27.709Z,12.43
2019-05-09T07:35:32.202Z,12.26
2019-05-09T07:38:38.311Z,12.27
2019-05-09T07:41:41.357Z,12.36
2019-05-09T07:44:49.033Z,12.39
2019-05-09T07:47:50.520Z,12.41
2019-05-09T07:50:54.922Z,12.22
2019-05-09T07:53:59.131Z,12.24
2019-05-09T07:57:02.912Z,12.50
2019-05-09T08:00:07.873Z,12.37
2019-05-09T08:03:13.193Z,12.45
2019-05-09T08:06:18.409Z,12.40
2019-05-09T08:09:22.320Z,12.19
2019-05-09T08:12:28.307Z,12.06
2019-05-09T08:15:31.464Z,11.98
2019-05-09T08:18:37.454Z,12.19
2019-05-09T08:21:41.010Z,12.02
2019-05-09T08:24:44.742Z,12.03
2019-05-09T08:27:48.460Z,12.21
2019-05-09T08:30:52.295Z,12.49
2019-05-09T08:33:56.007Z,13.10
2019-05-09T08:36:59.719Z,13.45
2019-05-09T08:40:03.743Z,13.34
2019-05-09T08:43:07.787Z,13.41
2019-05-09T08:46:12.543Z,13.50
2019-05-09T08:49:18.260Z,13.80
2019-05-09T08:52:22.047Z,13.20
2019-05-09T08:55:27.777Z,13.84
2019-05-09T08:58:31.312Z,13.49
2019-05-09T09:02:01.646Z,13.35
2019-05-09T09:04:40.611Z,13.54
2019-05-09T09:07:44.340Z,13.22
2019-05-09T09:10:48.963Z,13.59
2019-05-09T09:13:52.807Z,13.71
2019-05-09T09:16:57.595Z,13.96
2019-05-09T09:20:01.819Z,13.86
2019-05-09T09:23:05.588Z,13.74
2019-05-09T09:26:09.375Z,13.71
2019-05-09T09:29:13.106Z,13.98
2019-05-09T09:32:18.967Z,14.21
2019-05-09T09:35:22.658Z,13.93
2019-05-09T09:38:28.133Z,14.26
2019-05-09T09:41:31.899Z,14.22
2019-05-09T09:44:35.631Z,14.64
2019-05-09T09:47:40.429Z,14.91
2019-05-09T09:50:44.410Z,15.12
2019-05-09T09:53:48.955Z,15.79
2019-05-09T09:56:53.891Z,15.93
2019-05-09T10:00:00.847Z,15.76
2019-05-09T10:03:04.542Z,15.37
2019-05-09T10:06:08.531Z,15.47
2019-05-09T10:09:12.633Z,16.06
2019-05-09T10:12:18.219Z,15.56
2019-05-09T10:15:38.294Z,16.42
2019-05-09T10:18:59.204Z,15.95
2019-05-09T10:22:03.418Z,16.60
2019-05-09T10:25:07.903Z,16.11
2019-05-09T10:28:11.651Z,16.12
2019-05-09T10:31:15.337Z,15.75
2019-05-09T10:34:19.042Z,16.51
2019-05-09T10:37:22.829Z,16.76
2019-05-09T10:40:28.135Z,16.44
2019-05-09T10:43:41.701Z,18.70
2019-05-09T10:46:57.503Z,19.00
2019-05-09T10:49:58.674Z,18.70
2019-05-09T10:53:02.395Z,18.11
2019-05-09T10:56:08.717Z,16.52
2019-05-09T10:59:11.717Z,15.99
2019-05-09T11:02:17.531Z,17.39
2019-05-09T11:05:20.945Z,17.17
2019-05-09T11:08:24.645Z,16.36
2019-05-09T11:11:28.959Z,16.74
2019-05-09T11:14:37.305Z,21.14
2019-05-09T11:17:38.988Z,21.79
2019-05-09T11:20:42.782Z,21.18
2019-05-09T11:23:48.833Z,23.05
2019-05-09T11:26:51.891Z,22.80
2019-05-09T11:29:57.851Z,24.45
2019-05-09T11:33:01.311Z,25.17
2019-05-09T11:36:05.105Z,21.27
2019-05-09T11:39:10.651Z,19.26
2019-05-09T11:42:14.961Z,21.55
2019-05-09T11:45:18.737Z,21.71
2019-05-09T11:48:22.434Z,23.70
2019-05-09T11:51:29.053Z,20.76
2019-05-09T11:54:31.558Z,20.39
2019-05-09T11:57:35.253Z,22.21
2019-05-09T12:00:38.978Z,19.88
2019-05-09T12:03:42.725Z,19.17
2019-05-09T12:06:46.427Z,18.33
2019-05-09T12:09:50.704Z,20.87
2019-05-09T12:12:54.391Z,19.33
2019-05-09T12:15:58.523Z,21.29
2019-05-09T12:19:02.256Z,20.11
2019-05-09T12:22:08.757Z,18.93
2019-05-09T12:25:11.814Z,19.39
2019-05-09T12:28:15.505Z,18.82
2019-05-09T12:31:19.203Z,18.51
2019-05-09T12:34:22.966Z,19.82
2019-05-09T12:37:28.163Z,19.66
2019-05-09T12:40:32.121Z,18.95
2019-05-09T12:43:38.203Z,18.32
2019-05-09T12:46:41.255Z,18.01
2019-05-09T12:49:44.976Z,18.07
2019-05-09T12:52:48.907Z,17.80
2019-05-09T12:55:59.966Z,17.72
2019-05-09T12:59:03.752Z,17.95
2019-05-09T13:02:07.739Z,17.98
2019-05-09T13:05:11.600Z,18.89
2019-05-09T13:08:17.293Z,19.17
2019-05-09T13:11:20.811Z,19.92
2019-05-09T13:14:24.498Z,18.77
2019-05-09T13:17:31.735Z,18.37
2019-05-09T13:20:38.097Z,18.37
2019-05-09T13:23:40.892Z,18.08
2019-05-09T13:26:47.986Z,18.11
2019-05-09T13:29:51.945Z,18.11
2019-05-09T13:32:55.700Z,17.97
2019-05-09T13:35:59.406Z,17.63
2019-05-09T13:39:05.362Z,17.51
2019-05-09T13:42:09.765Z,17.53
2019-05-09T13:45:13.949Z,17.56
2019-05-09T13:48:28.056Z,18.15
2019-05-09T13:51:23.107Z,18.20
2019-05-09T13:54:28.589Z,17.65
2019-05-09T13:57:32.680Z,17.59
2019-05-09T14:00:38.891Z,17.24
2019-05-09T14:03:41.838Z,17.29
2019-05-09T14:06:45.629Z,17.65
2019-05-09T14:09:49.356Z,17.72
2019-05-09T14:13:05.652Z,18.11
2019-05-09T14:15:58.446Z,18.39
2019-05-09T14:19:24.591Z,18.19
2019-05-09T14:22:08.312Z,17.71
2019-05-09T14:25:12.151Z,17.63
2019-05-09T14:28:15.870Z,17.66
2019-05-09T14:31:19.559Z,17.58
2019-05-09T14:34:23.317Z,17.74
2019-05-09T14:37:28.391Z,17.77
2019-05-09T14:40:32.126Z,17.54
2019-05-09T14:43:39.541Z,17.54
2019-05-09T14:46:43.600Z,17.65
2019-05-09T14:49:49.961Z,17.51
2019-05-09T14:52:52.758Z,17.40
2019-05-09T14:55:58.833Z,17.69
2019-05-09T14:59:01.938Z,17.89
2019-05-09T15:02:08.849Z,18.13
2019-05-09T15:05:11.775Z,18.12
2019-05-09T15:08:17.940Z,18.27
2019-05-09T15:11:20.961Z,17.93
2019-05-09T15:14:25.456Z,17.32
2019-05-09T15:17:29.196Z,17.64
2019-05-09T15:20:32.976Z,17.28
2019-05-09T15:23:39.094Z,16.89
2019-05-09T15:26:42.390Z,16.87
2019-05-09T15:29:48.581Z,16.85
2019-05-09T15:32:52.253Z,16.85
2019-05-09T15:35:58.732Z,16.70
2019-05-09T15:39:02.224Z,16.56
2019-05-09T15:42:07.423Z,16.51
2019-05-09T15:45:11.474Z,16.21
2019-05-09T15:48:15.192Z,16.32
2019-05-09T15:51:18.899Z,16.34
2019-05-09T15:54:23.012Z,16.37
2019-05-09T15:57:27.541Z,16.38
2019-05-09T16:00:31.446Z,16.32
2019-05-09T16:03:35.220Z,16.26
2019-05-09T16:06:39.314Z,16.24
2019-05-09T16:09:43.093Z,16.23
2019-05-09T16:12:48.626Z,16.30
2019-05-09T16:15:52.255Z,16.16
2019-05-09T16:18:58.085Z,16.19
2019-05-09T16:22:02.147Z,16.13
2019-05-09T16:25:06.214Z,16.09
2019-05-09T16:28:09.907Z,16.08
2019-05-09T16:31:13.806Z,15.99
2019-05-09T16:34:17.912Z,15.92
2019-05-09T16:37:21.832Z,15.85
2019-05-09T16:40:27.819Z,15.52
2019-05-09T16:43:30.999Z,15.60
2019-05-09T16:46:37.330Z,15.46
2019-05-09T16:49:40.736Z,15.39
2019-05-09T16:52:44.476Z,15.45
2019-05-09T16:55:48.174Z,15.36
2019-05-09T16:58:51.923Z,15.27
2019-05-09T17:01:57.832Z,15.28
2019-05-09T17:05:01.933Z,15.28
2019-05-09T17:08:08.018Z,15.36
2019-05-09T17:11:11.488Z,15.36
2019-05-09T17:14:15.472Z,15.31
2019-05-09T17:17:19.557Z,15.31
2019-05-09T17:20:28.454Z,15.27
2019-05-09T17:23:32.311Z,15.27
2019-05-09T17:26:37.890Z,15.08
2019-05-09T17:29:41.447Z,15.03
2019-05-09T17:32:47.468Z,14.93
2019-05-09T17:35:51.267Z,14.95
2019-05-09T17:38:54.989Z,15.07
2019-05-09T17:41:58.780Z,15.07
2019-05-09T17:45:03.505Z,15.09
2019-05-09T17:48:08.569Z,15.18
2019-05-09T17:51:12.409Z,15.18
2019-05-09T17:54:18.244Z,15.25
2019-05-09T17:57:21.595Z,15.27
2019-05-09T18:00:27.898Z,15.19
2019-05-09T18:03:31.138Z,15.17
2019-05-09T18:06:34.869Z,15.16
2019-05-09T18:09:38.905Z,15.02
2019-05-09T18:12:42.605Z,15.08
2019-05-09T18:15:48.327Z,14.98
2019-05-09T18:18:54.641Z,14.96
2019-05-09T18:21:58.439Z,14.70
2019-05-09T18:25:02.579Z,14.51
2019-05-09T18:28:06.486Z,14.34
2019-05-09T18:31:10.505Z,14.30
2019-05-09T18:34:14.209Z,14.25
2019-05-09T18:37:17.923Z,14.38
2019-05-09T18:40:22.918Z,14.29
2019-05-09T18:43:27.444Z,14.17
2019-05-09T18:46:31.439Z,14.02
2019-05-09T18:49:35.222Z,13.80
2019-05-09T18:52:39.188Z,13.73
2019-05-09T18:55:42.978Z,13.63
2019-05-09T18:58:46.724Z,13.82
2019-05-09T19:01:50.420Z,13.67
2019-05-09T19:04:54.144Z,13.70
2019-05-09T19:07:58.046Z,13.74
2019-05-09T19:11:01.820Z,13.82
2019-05-09T19:14:06.659Z,13.66
2019-05-09T19:17:29.411Z,13.67
2019-05-09T19:20:55.838Z,13.49
2019-05-09T19:23:59.559Z,13.47
2019-05-09T19:27:03.265Z,13.37
2019-05-09T19:30:07.425Z,13.29
2019-05-09T19:33:11.210Z,13.35
2019-05-09T19:36:14.928Z,13.34
2019-05-09T19:39:18.986Z,13.22
2019-05-09T19:42:22.702Z,13.22
2019-05-09T19:45:26.493Z,13.17
2019-05-09T19:48:30.218Z,13.20
2019-05-09T19:51:34.193Z,12.95
2019-05-09T19:54:37.901Z,12.90
2019-05-09T19:57:41.633Z,12.87
2019-05-09T20:00:45.688Z,12.98
2019-05-09T20:03:49.474Z,12.91
2019-05-09T20:06:53.185Z,12.70
2019-05-09T20:10:03.411Z,12.48
2019-05-09T20:13:13.137Z,12.39
2019-05-09T20:16:16.821Z,12.31
2019-05-09T20:19:20.542Z,12.14
2019-05-09T20:22:24.266Z,12.05
2019-05-09T20:25:28.000Z,12.17
2019-05-09T20:28:31.712Z,12.15
2019-05-09T20:31:35.854Z,12.06
2019-05-09T20:34:39.608Z,12.06
2019-05-09T20:37:43.494Z,12.05
2019-05-09T20:40:47.377Z,11.98
2019-05-09T20:43:51.269Z,11.91
2019-05-09T20:46:55.174Z,11.86
2019-05-09T20:49:59.057Z,11.82
2019-05-09T20:53:09.596Z,11.90
2019-05-09T20:56:08.903Z,11.78
2019-05-09T20:59:12.805Z,11.87
2019-05-09T21:02:16.679Z,11.87
2019-05-09T21:05:20.573Z,11.81
2019-05-09T21:08:24.538Z,11.76
2019-05-09T21:11:28.412Z,11.80
2019-05-09T21:14:32.327Z,11.85
2019-05-09T21:17:36.259Z,11.97
2019-05-09T21:20:40.497Z,12.03
2019-05-09T21:23:44.458Z,12.14
2019-05-09T21:26:48.341Z,12.34
2019-05-09T21:29:52.306Z,12.28
2019-05-09T21:32:56.543Z,12.16
2019-05-09T21:36:00.841Z,12.14
2019-05-09T21:39:06.238Z,12.37
2019-05-09T21:42:09.999Z,12.27
2019-05-09T21:45:14.011Z,12.20
2019-05-09T21:48:17.714Z,12.14
2019-05-09T21:51:21.408Z,12.19
2019-05-09T21:54:25.394Z,12.14
2019-05-09T21:57:29.116Z,12.06
2019-05-09T22:00:36.628Z,11.96
2019-05-09T22:03:40.465Z,12.01
2019-05-09T22:06:44.189Z,12.02
2019-05-09T22:09:48.193Z,12.03
2019-05-09T22:12:51.965Z,12.06
2019-05-09T22:15:55.667Z,11.78
2019-05-09T22:18:59.368Z,11.75
2019-05-09T22:22:03.096Z,11.88
2019-05-09T22:25:07.606Z,11.71
2019-05-09T22:28:11.303Z,11.94
2019-05-09T22:31:14.999Z,11.69
2019-05-09T22:34:18.693Z,11.57
2019-05-09T22:37:22.412Z,11.48
2019-05-09T22:40:26.118Z,11.57
2019-05-09T22:43:30.169Z,11.40
2019-05-09T22:46:33.876Z,11.39
2019-05-09T22:49:37.572Z,11.36
2019-05-09T22:52:41.290Z,11.39
2019-05-09T22:55:45.027Z,11.34
2019-05-09T22:58:48.759Z,11.28
2019-05-09T23:01:52.469Z,11.21
2019-05-09T23:04:56.170Z,11.23
2019-05-09T23:07:59.952Z,11.21
2019-05-09T23:11:03.798Z,11.26
2019-05-09T23:14:07.566Z,11.14
2019-05-09T23:17:11.576Z,11.18
2019-05-09T23:20:36.107Z,11.13
2019-05-09T23:23:42.338Z,11.13
2019-05-09T23:26:46.071Z,11.13
2019-05-09T23:29:49.779Z,11.16
2019-05-09T23:32:53.579Z,11.30
2019-05-09T23:35:57.306Z,11.32
2019-05-09T23:39:26.329Z,11.36
2019-05-09T23:42:30.174Z,11.26
2019-05-09T23:45:33.895Z,11.30
2019-05-09T23:48:38.007Z,11.37
2019-05-09T23:51:45.727Z,11.34
2019-05-09T23:55:07.435Z,11.31
2019-05-09T23:58:29.057Z,11.29
